Airfield :
LOGIN :

Register | Disclaimer

   EN    FR    IT 

 










Legend :    VFR   Marginal VFR   IFR   Intensive IFR   Very Intensive IFR
Visi :
Ceiling :
>= 8 km
>= 3000ft
5 to 8 km
1000 to 3000 ft
1500m to 5 km
500 to 1000 ft
800 to 1500m
200 to 500 ft
< 800m
< 200 ft
Symbols :   Thunderstorms  Fog  Heavy snow  Heavy precipitations  Wind > 20 kt
SIGMETs :     Misc.  Thunderstorms  Icing  Turbulence  Mountain Waves  Volcanic Ashes






- Airport Elevation : 506 ft
- IATA code : GOT


ESGG - Landvetter

CURRENT METAR :
  • 270320Z 06009KT 9999 BKN055 17/16 Q1011

EXPIRED METARs :
  • 270250Z 06008KT 9999 SCT070 BKN098 17/16 Q1011
  • 270220Z 11008KT CAVOK 17/15 Q1011
  • 270150Z 10008KT CAVOK 17/15 Q1011
  • 270120Z 10009KT CAVOK 16/15 Q1012
  • 270050Z 11007KT CAVOK 16/15 Q1012

TAF TAF ESGG
Valid from the 27 at 00:00 until the 28 at 00:00 UTC


262330Z 2700/2724 11009KT CAVOK
TEMPO 2700/2720 4000 TSRA BKN045CB
PROB40 2707/2711 BKN008



MET'MAP, your aeronautical weather chart ! - Copyright ORBIFLY December 2007 - Disclaimer

ORBIFLY MET'MAP TEAM :

Programming & Development : Alexandra Zaïnal
Concept & original design : Baudouin d'Aumeries
Assistance for programming : Marc-Olivier Méhu
Technical & hardware support : Manuel Goepfert

Contact : metmap@orbifly.com




SOURCES & CREDITS :

   NOAA